sensor_id;sensor_type;location;lat;lon;timestamp;P1;durP1;ratioP1;P2;durP2;ratioP2
11269;SDS011;5692;48.956;9.200;2023-09-19T00:00:46;207.43;;;197.52;;
11269;SDS011;5692;48.956;9.200;2023-09-19T00:03:13;193.82;;;184.52;;
11269;SDS011;5692;48.956;9.200;2023-09-19T00:05:41;216.63;;;206.25;;
11269;SDS011;5692;48.956;9.200;2023-09-19T00:08:14;209.05;;;199.05;;
11269;SDS011;5692;48.956;9.200;2023-09-19T00:10:40;213.68;;;203.45;;
11269;SDS011;5692;48.956;9.200;2023-09-19T00:13:07;212.38;;;202.20;;
11269;SDS011;5692;48.956;9.200;2023-09-19T00:15:37;202.55;;;192.85;;
11269;SDS011;5692;48.956;9.200;2023-09-19T00:18:03;200.18;;;190.60;;
11269;SDS011;5692;48.956;9.200;2023-09-19T00:20:37;212.63;;;202.45;;
11269;SDS011;5692;48.956;9.200;2023-09-19T00:23:04;194.95;;;185.63;;
11269;SDS011;5692;48.956;9.200;2023-09-19T00:25:37;208.55;;;198.55;;
11269;SDS011;5692;48.956;9.200;2023-09-19T00:28:03;197.70;;;188.23;;
11269;SDS011;5692;48.956;9.200;2023-09-19T00:30:32;192.18;;;182.98;;
11269;SDS011;5692;48.956;9.200;2023-09-19T00:32:58;187.48;;;178.52;;
11269;SDS011;5692;48.956;9.200;2023-09-19T00:35:28;195.43;;;186.07;;
11269;SDS011;5692;48.956;9.200;2023-09-19T00:37:54;200.20;;;190.60;;
11269;SDS011;5692;48.956;9.200;2023-09-19T00:40:21;185.07;;;176.18;;
11269;SDS011;5692;48.956;9.200;2023-09-19T00:42:47;192.32;;;183.13;;
11269;SDS011;5692;48.956;9.200;2023-09-19T00:45:16;189.20;;;180.15;;
11269;SDS011;5692;48.956;9.200;2023-09-19T00:47:49;187.93;;;178.93;;
11269;SDS011;5692;48.956;9.200;2023-09-19T00:50:19;190.32;;;181.23;;
11269;SDS011;5692;48.956;9.200;2023-09-19T00:52:46;201.20;;;191.60;;
11269;SDS011;5692;48.956;9.200;2023-09-19T00:55:17;194.25;;;184.95;;
11269;SDS011;5692;48.956;9.200;2023-09-19T00:57:49;185.45;;;176.55;;
11269;SDS011;5692;48.956;9.200;2023-09-19T01:00:15;193.68;;;184.43;;
11269;SDS011;5692;48.956;9.200;2023-09-19T01:02:44;197.90;;;188.45;;
11269;SDS011;5692;48.956;9.200;2023-09-19T01:05:10;208.95;;;198.95;;
11269;SDS011;5692;48.956;9.200;2023-09-19T01:07:40;194.60;;;185.27;;
11269;SDS011;5692;48.956;9.200;2023-09-19T01:10:11;191.63;;;182.43;;
11269;SDS011;5692;48.956;9.200;2023-09-19T01:15:15;181.23;;;172.52;;
11269;SDS011;5692;48.956;9.200;2023-09-19T01:17:51;186.80;;;177.85;;
11269;SDS011;5692;48.956;9.200;2023-09-19T01:23:02;185.05;;;176.20;;
11269;SDS011;5692;48.956;9.200;2023-09-19T01:25:36;197.85;;;188.35;;
11269;SDS011;5692;48.956;9.200;2023-09-19T01:30:43;189.77;;;180.70;;
11269;SDS011;5692;48.956;9.200;2023-09-19T01:33:10;190.95;;;181.80;;
11269;SDS011;5692;48.956;9.200;2023-09-19T01:35:39;195.60;;;186.25;;
11269;SDS011;5692;48.956;9.200;2023-09-19T01:38:05;206.50;;;196.60;;
11269;SDS011;5692;48.956;9.200;2023-09-19T01:40:34;193.85;;;184.57;;
11269;SDS011;5692;48.956;9.200;2023-09-19T01:43:41;190.73;;;181.60;;
11269;SDS011;5692;48.956;9.200;2023-09-19T01:46:12;200.85;;;191.25;;
11269;SDS011;5692;48.956;9.200;2023-09-19T01:48:42;174.95;;;166.57;;
11269;SDS011;5692;48.956;9.200;2023-09-19T01:51:16;207.82;;;197.88;;
11269;SDS011;5692;48.956;9.200;2023-09-19T01:54:02;185.73;;;176.82;;
11269;SDS011;5692;48.956;9.200;2023-09-19T01:56:46;188.52;;;179.52;;
11269;SDS011;5692;48.956;9.200;2023-09-19T01:59:15;181.70;;;173.00;;
11269;SDS011;5692;48.956;9.200;2023-09-19T02:01:42;182.13;;;173.40;;
11269;SDS011;5692;48.956;9.200;2023-09-19T02:04:11;185.25;;;176.35;;
11269;SDS011;5692;48.956;9.200;2023-09-19T02:06:48;173.40;;;165.10;;
11269;SDS011;5692;48.956;9.200;2023-09-19T02:09:14;184.55;;;175.75;;
11269;SDS011;5692;48.956;9.200;2023-09-19T02:11:41;180.13;;;171.52;;
11269;SDS011;5692;48.956;9.200;2023-09-19T02:14:07;179.95;;;171.32;;
11269;SDS011;5692;48.956;9.200;2023-09-19T02:16:33;174.70;;;166.32;;
11269;SDS011;5692;48.956;9.200;2023-09-19T02:18:59;179.00;;;170.40;;
11269;SDS011;5692;48.956;9.200;2023-09-19T02:21:37;182.43;;;173.68;;
11269;SDS011;5692;48.956;9.200;2023-09-19T02:24:05;182.23;;;173.50;;
11269;SDS011;5692;48.956;9.200;2023-09-19T02:26:36;189.70;;;180.60;;
11269;SDS011;5692;48.956;9.200;2023-09-19T02:29:05;180.00;;;171.40;;
11269;SDS011;5692;48.956;9.200;2023-09-19T02:31:31;188.13;;;179.13;;
11269;SDS011;5692;48.956;9.200;2023-09-19T02:33:57;180.48;;;171.85;;
11269;SDS011;5692;48.956;9.200;2023-09-19T02:36:26;189.48;;;180.38;;
11269;SDS011;5692;48.956;9.200;2023-09-19T02:38:52;166.25;;;158.27;;
11269;SDS011;5692;48.956;9.200;2023-09-19T02:41:18;175.98;;;167.52;;
11269;SDS011;5692;48.956;9.200;2023-09-19T02:43:47;177.38;;;168.88;;
11269;SDS011;5692;48.956;9.200;2023-09-19T02:46:16;198.00;;;188.50;;
11269;SDS011;5692;48.956;9.200;2023-09-19T02:48:46;178.13;;;169.63;;
11269;SDS011;5692;48.956;9.200;2023-09-19T02:51:12;182.88;;;174.07;;
11269;SDS011;5692;48.956;9.200;2023-09-19T02:53:45;196.45;;;187.02;;
11269;SDS011;5692;48.956;9.200;2023-09-19T02:56:12;178.55;;;170.00;;
11269;SDS011;5692;48.956;9.200;2023-09-19T02:58:41;180.90;;;172.25;;
11269;SDS011;5692;48.956;9.200;2023-09-19T03:01:08;189.55;;;180.45;;
11269;SDS011;5692;48.956;9.200;2023-09-19T03:03:36;189.35;;;180.25;;
11269;SDS011;5692;48.956;9.200;2023-09-19T03:06:06;191.30;;;182.13;;
11269;SDS011;5692;48.956;9.200;2023-09-19T03:08:34;176.48;;;168.02;;
11269;SDS011;5692;48.956;9.200;2023-09-19T03:11:05;188.82;;;179.77;;
11269;SDS011;5692;48.956;9.200;2023-09-19T03:13:32;192.38;;;183.18;;
11269;SDS011;5692;48.956;9.200;2023-09-19T03:15:58;174.60;;;166.20;;
11269;SDS011;5692;48.956;9.200;2023-09-19T03:18:26;175.85;;;167.43;;
11269;SDS011;5692;48.956;9.200;2023-09-19T03:20:55;185.02;;;176.15;;
11269;SDS011;5692;48.956;9.200;2023-09-19T03:23:24;188.45;;;179.43;;
11269;SDS011;5692;48.956;9.200;2023-09-19T03:25:53;183.80;;;175.00;;
11269;SDS011;5692;48.956;9.200;2023-09-19T03:28:19;177.73;;;169.23;;
11269;SDS011;5692;48.956;9.200;2023-09-19T03:30:56;182.85;;;174.07;;
11269;SDS011;5692;48.956;9.200;2023-09-19T03:33:25;181.75;;;173.05;;
11269;SDS011;5692;48.956;9.200;2023-09-19T03:35:54;179.93;;;171.32;;
11269;SDS011;5692;48.956;9.200;2023-09-19T03:38:23;182.77;;;174.02;;
11269;SDS011;5692;48.956;9.200;2023-09-19T03:40:51;183.68;;;174.88;;
11269;SDS011;5692;48.956;9.200;2023-09-19T03:43:19;191.10;;;181.95;;
11269;SDS011;5692;48.956;9.200;2023-09-19T03:45:49;194.30;;;185.00;;
11269;SDS011;5692;48.956;9.200;2023-09-19T03:48:16;179.15;;;170.57;;
11269;SDS011;5692;48.956;9.200;2023-09-19T03:50:45;181.48;;;172.77;;
11269;SDS011;5692;48.956;9.200;2023-09-19T03:53:13;189.13;;;180.07;;
11269;SDS011;5692;48.956;9.200;2023-09-19T03:55:40;183.45;;;174.65;;
11269;SDS011;5692;48.956;9.200;2023-09-19T03:58:06;179.02;;;170.45;;
11269;SDS011;5692;48.956;9.200;2023-09-19T04:00:35;181.98;;;173.27;;
11269;SDS011;5692;48.956;9.200;2023-09-19T04:03:04;186.43;;;177.50;;
11269;SDS011;5692;48.956;9.200;2023-09-19T04:05:32;178.52;;;169.98;;
11269;SDS011;5692;48.956;9.200;2023-09-19T04:08:01;168.15;;;160.07;;
11269;SDS011;5692;48.956;9.200;2023-09-19T04:10:27;170.75;;;162.57;;
11269;SDS011;5692;48.956;9.200;2023-09-19T04:12:54;168.32;;;160.23;;
11269;SDS011;5692;48.956;9.200;2023-09-19T04:15:20;171.35;;;163.15;;
11269;SDS011;5692;48.956;9.200;2023-09-19T04:17:48;173.80;;;165.48;;
11269;SDS011;5692;48.956;9.200;2023-09-19T04:20:14;172.43;;;164.18;;
11269;SDS011;5692;48.956;9.200;2023-09-19T04:22:41;168.25;;;160.20;;
11269;SDS011;5692;48.956;9.200;2023-09-19T04:25:07;166.07;;;158.10;;
11269;SDS011;5692;48.956;9.200;2023-09-19T04:27:33;188.45;;;179.45;;
11269;SDS011;5692;48.956;9.200;2023-09-19T04:29:59;175.63;;;167.23;;
11269;SDS011;5692;48.956;9.200;2023-09-19T04:32:34;177.30;;;168.80;;
11269;SDS011;5692;48.956;9.200;2023-09-19T04:35:01;174.02;;;165.68;;
11269;SDS011;5692;48.956;9.200;2023-09-19T04:37:33;172.00;;;163.77;;
11269;SDS011;5692;48.956;9.200;2023-09-19T04:40:03;177.70;;;169.20;;
11269;SDS011;5692;48.956;9.200;2023-09-19T04:42:31;166.05;;;158.07;;
11269;SDS011;5692;48.956;9.200;2023-09-19T04:44:57;192.43;;;183.23;;
11269;SDS011;5692;48.956;9.200;2023-09-19T04:47:27;186.45;;;177.55;;
11269;SDS011;5692;48.956;9.200;2023-09-19T04:49:53;191.07;;;181.93;;
11269;SDS011;5692;48.956;9.200;2023-09-19T04:52:19;172.43;;;164.15;;
11269;SDS011;5692;48.956;9.200;2023-09-19T04:54:48;186.23;;;177.30;;
11269;SDS011;5692;48.956;9.200;2023-09-19T04:57:14;176.38;;;167.93;;
11269;SDS011;5692;48.956;9.200;2023-09-19T04:59:43;168.60;;;160.50;;
11269;SDS011;5692;48.956;9.200;2023-09-19T05:02:11;165.95;;;158.00;;
11269;SDS011;5692;48.956;9.200;2023-09-19T05:04:40;168.07;;;160.02;;
11269;SDS011;5692;48.956;9.200;2023-09-19T05:07:06;169.98;;;161.85;;
11269;SDS011;5692;48.956;9.200;2023-09-19T05:09:32;167.75;;;159.70;;
11269;SDS011;5692;48.956;9.200;2023-09-19T05:11:59;161.68;;;153.93;;
11269;SDS011;5692;48.956;9.200;2023-09-19T05:14:26;160.15;;;152.48;;
11269;SDS011;5692;48.956;9.200;2023-09-19T05:16:52;158.68;;;151.07;;
11269;SDS011;5692;48.956;9.200;2023-09-19T05:19:27;154.13;;;146.73;;
11269;SDS011;5692;48.956;9.200;2023-09-19T05:21:53;157.35;;;149.82;;
11269;SDS011;5692;48.956;9.200;2023-09-19T05:24:20;153.23;;;145.90;;
11269;SDS011;5692;48.956;9.200;2023-09-19T05:26:48;157.95;;;150.38;;
11269;SDS011;5692;48.956;9.200;2023-09-19T05:29:22;166.88;;;158.88;;
11269;SDS011;5692;48.956;9.200;2023-09-19T05:31:48;171.95;;;163.70;;
11269;SDS011;5692;48.956;9.200;2023-09-19T05:34:23;158.82;;;151.23;;
11269;SDS011;5692;48.956;9.200;2023-09-19T05:36:58;157.20;;;149.70;;
11269;SDS011;5692;48.956;9.200;2023-09-19T05:39:33;160.63;;;152.93;;
11269;SDS011;5692;48.956;9.200;2023-09-19T05:41:59;163.05;;;155.23;;
11269;SDS011;5692;48.956;9.200;2023-09-19T05:44:25;171.55;;;163.35;;
11269;SDS011;5692;48.956;9.200;2023-09-19T05:46:55;149.73;;;142.52;;
11269;SDS011;5692;48.956;9.200;2023-09-19T05:49:22;161.00;;;153.27;;
11269;SDS011;5692;48.956;9.200;2023-09-19T05:51:50;163.77;;;155.93;;
11269;SDS011;5692;48.956;9.200;2023-09-19T05:54:22;175.75;;;167.32;;
11269;SDS011;5692;48.956;9.200;2023-09-19T05:56:58;175.25;;;166.85;;
11269;SDS011;5692;48.956;9.200;2023-09-19T05:59:24;155.23;;;147.82;;
11269;SDS011;5692;48.956;9.200;2023-09-19T06:01:50;165.18;;;157.27;;
11269;SDS011;5692;48.956;9.200;2023-09-19T06:04:21;162.43;;;154.63;;
11269;SDS011;5692;48.956;9.200;2023-09-19T06:06:48;165.40;;;157.50;;
11269;SDS011;5692;48.956;9.200;2023-09-19T06:09:14;169.90;;;161.77;;
11269;SDS011;5692;48.956;9.200;2023-09-19T06:11:44;169.95;;;161.80;;
11269;SDS011;5692;48.956;9.200;2023-09-19T06:14:12;175.88;;;167.45;;
11269;SDS011;5692;48.956;9.200;2023-09-19T06:16:50;169.93;;;161.77;;
11269;SDS011;5692;48.956;9.200;2023-09-19T06:19:20;180.48;;;171.82;;
11269;SDS011;5692;48.956;9.200;2023-09-19T06:21:47;166.27;;;158.27;;
11269;SDS011;5692;48.956;9.200;2023-09-19T06:24:19;168.85;;;160.75;;
11269;SDS011;5692;48.956;9.200;2023-09-19T06:26:46;174.43;;;166.05;;
11269;SDS011;5692;48.956;9.200;2023-09-19T06:29:15;178.85;;;170.27;;
11269;SDS011;5692;48.956;9.200;2023-09-19T06:31:41;178.23;;;169.70;;
11269;SDS011;5692;48.956;9.200;2023-09-19T06:34:07;171.25;;;163.02;;
11269;SDS011;5692;48.956;9.200;2023-09-19T06:36:34;167.10;;;159.10;;
11269;SDS011;5692;48.956;9.200;2023-09-19T06:39:02;168.48;;;160.40;;
11269;SDS011;5692;48.956;9.200;2023-09-19T06:41:29;170.75;;;162.57;;
11269;SDS011;5692;48.956;9.200;2023-09-19T06:43:58;171.02;;;162.82;;
11269;SDS011;5692;48.956;9.200;2023-09-19T06:46:24;158.82;;;151.23;;
11269;SDS011;5692;48.956;9.200;2023-09-19T06:48:50;156.82;;;149.32;;
11269;SDS011;5692;48.956;9.200;2023-09-19T06:51:17;168.23;;;160.18;;
11269;SDS011;5692;48.956;9.200;2023-09-19T06:53:44;169.90;;;161.80;;
11269;SDS011;5692;48.956;9.200;2023-09-19T06:56:12;178.98;;;170.40;;
11269;SDS011;5692;48.956;9.200;2023-09-19T06:58:38;187.98;;;178.98;;
11269;SDS011;5692;48.956;9.200;2023-09-19T07:01:04;175.13;;;166.73;;
11269;SDS011;5692;48.956;9.200;2023-09-19T07:03:33;182.10;;;173.40;;
11269;SDS011;5692;48.956;9.200;2023-09-19T07:06:01;184.98;;;176.13;;
11269;SDS011;5692;48.956;9.200;2023-09-19T07:08:29;171.57;;;163.38;;
11269;SDS011;5692;48.956;9.200;2023-09-19T07:10:56;176.35;;;167.90;;
11269;SDS011;5692;48.956;9.200;2023-09-19T07:13:22;180.40;;;171.77;;
11269;SDS011;5692;48.956;9.200;2023-09-19T07:15:50;171.75;;;163.52;;
11269;SDS011;5692;48.956;9.200;2023-09-19T07:18:17;173.68;;;165.35;;
11269;SDS011;5692;48.956;9.200;2023-09-19T07:20:46;181.40;;;172.70;;
11269;SDS011;5692;48.956;9.200;2023-09-19T07:23:18;176.27;;;167.82;;
11269;SDS011;5692;48.956;9.200;2023-09-19T07:25:47;175.88;;;167.45;;
11269;SDS011;5692;48.956;9.200;2023-09-19T07:28:13;166.23;;;158.27;;
11269;SDS011;5692;48.956;9.200;2023-09-19T07:30:39;180.15;;;171.52;;
11269;SDS011;5692;48.956;9.200;2023-09-19T07:33:09;182.15;;;173.45;;
11269;SDS011;5692;48.956;9.200;2023-09-19T07:35:44;186.63;;;177.70;;
11269;SDS011;5692;48.956;9.200;2023-09-19T07:38:14;191.80;;;182.60;;
11269;SDS011;5692;48.956;9.200;2023-09-19T07:40:43;191.68;;;182.48;;
11269;SDS011;5692;48.956;9.200;2023-09-19T07:43:09;185.52;;;176.63;;
11269;SDS011;5692;48.956;9.200;2023-09-19T07:45:37;184.43;;;175.63;;
11269;SDS011;5692;48.956;9.200;2023-09-19T07:48:03;194.63;;;185.30;;
11269;SDS011;5692;48.956;9.200;2023-09-19T07:50:32;170.95;;;162.75;;
11269;SDS011;5692;48.956;9.200;2023-09-19T07:53:08;182.25;;;173.52;;
11269;SDS011;5692;48.956;9.200;2023-09-19T07:55:37;177.85;;;169.35;;
11269;SDS011;5692;48.956;9.200;2023-09-19T07:58:05;184.55;;;175.70;;
11269;SDS011;5692;48.956;9.200;2023-09-19T08:00:32;182.10;;;173.38;;
11269;SDS011;5692;48.956;9.200;2023-09-19T08:03:00;188.32;;;179.30;;
11269;SDS011;5692;48.956;9.200;2023-09-19T08:05:26;172.35;;;164.07;;
11269;SDS011;5692;48.956;9.200;2023-09-19T08:07:52;175.40;;;167.00;;
11269;SDS011;5692;48.956;9.200;2023-09-19T08:10:21;185.85;;;176.93;;
11269;SDS011;5692;48.956;9.200;2023-09-19T08:12:50;198.25;;;188.75;;
11269;SDS011;5692;48.956;9.200;2023-09-19T08:15:21;190.88;;;181.73;;
11269;SDS011;5692;48.956;9.200;2023-09-19T08:17:47;192.80;;;183.57;;
11269;SDS011;5692;48.956;9.200;2023-09-19T08:20:14;198.50;;;189.00;;
11269;SDS011;5692;48.956;9.200;2023-09-19T08:22:47;196.85;;;187.45;;
11269;SDS011;5692;48.956;9.200;2023-09-19T08:25:17;208.18;;;198.23;;
11269;SDS011;5692;48.956;9.200;2023-09-19T08:27:46;193.32;;;184.07;;
11269;SDS011;5692;48.956;9.200;2023-09-19T08:30:17;195.43;;;186.07;;
11269;SDS011;5692;48.956;9.200;2023-09-19T08:32:46;186.82;;;177.88;;
11269;SDS011;5692;48.956;9.200;2023-09-19T08:35:12;195.75;;;186.38;;
11269;SDS011;5692;48.956;9.200;2023-09-19T08:37:39;202.88;;;193.18;;
11269;SDS011;5692;48.956;9.200;2023-09-19T08:40:11;199.95;;;190.40;;
11269;SDS011;5692;48.956;9.200;2023-09-19T08:42:53;193.38;;;184.10;;
11269;SDS011;5692;48.956;9.200;2023-09-19T08:45:20;196.40;;;187.00;;
11269;SDS011;5692;48.956;9.200;2023-09-19T08:48:30;207.55;;;197.63;;
11269;SDS011;5692;48.956;9.200;2023-09-19T08:53:15;201.93;;;192.23;;
11269;SDS011;5692;48.956;9.200;2023-09-19T08:55:43;203.50;;;193.75;;
11269;SDS011;5692;48.956;9.200;2023-09-19T08:58:10;195.40;;;186.05;;
11269;SDS011;5692;48.956;9.200;2023-09-19T09:00:38;208.43;;;198.48;;
11269;SDS011;5692;48.956;9.200;2023-09-19T09:03:08;221.40;;;210.80;;
11269;SDS011;5692;48.956;9.200;2023-09-19T09:05:35;209.05;;;199.02;;
11269;SDS011;5692;48.956;9.200;2023-09-19T09:08:05;215.23;;;204.93;;
11269;SDS011;5692;48.956;9.200;2023-09-19T09:10:32;200.65;;;191.05;;
11269;SDS011;5692;48.956;9.200;2023-09-19T09:13:00;208.75;;;198.75;;
11269;SDS011;5692;48.956;9.200;2023-09-19T09:15:31;208.52;;;198.55;;
11269;SDS011;5692;48.956;9.200;2023-09-19T09:18:01;206.30;;;196.43;;
11269;SDS011;5692;48.956;9.200;2023-09-19T09:20:30;196.68;;;187.27;;
11269;SDS011;5692;48.956;9.200;2023-09-19T09:22:56;221.60;;;211.00;;
11269;SDS011;5692;48.956;9.200;2023-09-19T09:28:12;211.73;;;201.57;;
11269;SDS011;5692;48.956;9.200;2023-09-19T09:30:44;224.82;;;214.02;;
11269;SDS011;5692;48.956;9.200;2023-09-19T09:33:11;233.20;;;222.02;;
11269;SDS011;5692;48.956;9.200;2023-09-19T09:38:43;198.63;;;189.13;;
11269;SDS011;5692;48.956;9.200;2023-09-19T09:41:10;212.77;;;202.60;;
11269;SDS011;5692;48.956;9.200;2023-09-19T09:43:41;200.23;;;190.63;;
11269;SDS011;5692;48.956;9.200;2023-09-19T09:51:43;222.15;;;211.50;;
11269;SDS011;5692;48.956;9.200;2023-09-19T09:54:23;215.10;;;204.80;;
11269;SDS011;5692;48.956;9.200;2023-09-19T09:57:07;203.85;;;194.05;;
11269;SDS011;5692;48.956;9.200;2023-09-19T10:02:35;216.15;;;205.85;;
11269;SDS011;5692;48.956;9.200;2023-09-19T10:05:11;204.32;;;194.52;;
11269;SDS011;5692;48.956;9.200;2023-09-19T10:07:51;215.45;;;205.15;;
11269;SDS011;5692;48.956;9.200;2023-09-19T10:10:36;193.82;;;184.52;;
11269;SDS011;5692;48.956;9.200;2023-09-19T10:13:13;196.05;;;186.65;;
11269;SDS011;5692;48.956;9.200;2023-09-19T10:15:50;207.60;;;197.70;;
11269;SDS011;5692;48.956;9.200;2023-09-19T10:18:19;206.02;;;196.18;;
11269;SDS011;5692;48.956;9.200;2023-09-19T10:20:45;195.88;;;186.48;;
11269;SDS011;5692;48.956;9.200;2023-09-19T10:23:18;196.07;;;186.68;;
11269;SDS011;5692;48.956;9.200;2023-09-19T10:25:48;207.90;;;197.95;;
11269;SDS011;5692;48.956;9.200;2023-09-19T10:28:15;217.70;;;207.30;;
11269;SDS011;5692;48.956;9.200;2023-09-19T10:30:49;216.77;;;206.38;;
11269;SDS011;5692;48.956;9.200;2023-09-19T10:33:17;223.93;;;213.23;;
11269;SDS011;5692;48.956;9.200;2023-09-19T10:35:46;249.15;;;237.23;;
11269;SDS011;5692;48.956;9.200;2023-09-19T10:38:26;235.90;;;224.60;;
11269;SDS011;5692;48.956;9.200;2023-09-19T10:40:54;222.75;;;212.10;;
11269;SDS011;5692;48.956;9.200;2023-09-19T10:43:25;209.88;;;199.82;;
11269;SDS011;5692;48.956;9.200;2023-09-19T10:45:51;211.23;;;201.13;;
11269;SDS011;5692;48.956;9.200;2023-09-19T10:48:19;213.82;;;203.60;;
11269;SDS011;5692;48.956;9.200;2023-09-19T10:50:50;199.55;;;190.00;;
11269;SDS011;5692;48.956;9.200;2023-09-19T10:53:16;217.07;;;206.68;;
11269;SDS011;5692;48.956;9.200;2023-09-19T10:55:49;209.45;;;199.45;;
11269;SDS011;5692;48.956;9.200;2023-09-19T10:58:29;214.48;;;204.20;;
11269;SDS011;5692;48.956;9.200;2023-09-19T11:01:01;199.35;;;189.82;;
11269;SDS011;5692;48.956;9.200;2023-09-19T11:03:39;223.32;;;212.65;;
11269;SDS011;5692;48.956;9.200;2023-09-19T11:06:10;228.18;;;217.25;;
11269;SDS011;5692;48.956;9.200;2023-09-19T11:09:00;212.05;;;201.93;;
11269;SDS011;5692;48.956;9.200;2023-09-19T11:14:14;230.52;;;219.52;;
11269;SDS011;5692;48.956;9.200;2023-09-19T11:17:02;219.98;;;209.45;;
11269;SDS011;5692;48.956;9.200;2023-09-19T11:20:14;217.70;;;207.30;;
11269;SDS011;5692;48.956;9.200;2023-09-19T11:22:20;226.00;;;215.18;;
11269;SDS011;5692;48.956;9.200;2023-09-19T11:24:47;205.60;;;195.80;;
11269;SDS011;5692;48.956;9.200;2023-09-19T11:27:17;223.43;;;212.73;;
11269;SDS011;5692;48.956;9.200;2023-09-19T11:29:51;223.88;;;213.18;;
11269;SDS011;5692;48.956;9.200;2023-09-19T11:35:25;223.10;;;212.40;;
11269;SDS011;5692;48.956;9.200;2023-09-19T11:38:11;209.55;;;199.55;;
11269;SDS011;5692;48.956;9.200;2023-09-19T11:40:44;212.05;;;201.93;;
11269;SDS011;5692;48.956;9.200;2023-09-19T11:43:30;205.50;;;195.70;;
11269;SDS011;5692;48.956;9.200;2023-09-19T11:46:01;228.23;;;217.30;;
11269;SDS011;5692;48.956;9.200;2023-09-19T11:48:34;229.37;;;218.40;;
11269;SDS011;5692;48.956;9.200;2023-09-19T11:51:24;237.10;;;225.80;;
11269;SDS011;5692;48.956;9.200;2023-09-19T11:54:01;250.43;;;238.43;;
11269;SDS011;5692;48.956;9.200;2023-09-19T11:56:31;233.30;;;222.13;;
11269;SDS011;5692;48.956;9.200;2023-09-19T11:59:07;239.30;;;227.87;;
11269;SDS011;5692;48.956;9.200;2023-09-19T12:01:49;241.60;;;230.03;;
11269;SDS011;5692;48.956;9.200;2023-09-19T12:04:36;237.57;;;226.20;;
11269;SDS011;5692;48.956;9.200;2023-09-19T12:07:14;233.30;;;222.13;;
11269;SDS011;5692;48.956;9.200;2023-09-19T12:10:10;235.13;;;223.90;;
11269;SDS011;5692;48.956;9.200;2023-09-19T12:12:52;234.17;;;222.97;;
11269;SDS011;5692;48.956;9.200;2023-09-19T12:15:25;242.47;;;230.87;;
11269;SDS011;5692;48.956;9.200;2023-09-19T12:18:09;233.73;;;222.53;;
11269;SDS011;5692;48.956;9.200;2023-09-19T12:20:42;236.60;;;225.30;;
11269;SDS011;5692;48.956;9.200;2023-09-19T12:23:13;239.70;;;228.23;;
11269;SDS011;5692;48.956;9.200;2023-09-19T12:25:47;228.57;;;217.63;;
11269;SDS011;5692;48.956;9.200;2023-09-19T12:31:07;237.57;;;226.17;;
11269;SDS011;5692;48.956;9.200;2023-09-19T12:33:36;226.17;;;215.33;;
11269;SDS011;5692;48.956;9.200;2023-09-19T12:36:23;230.00;;;219.00;;
11269;SDS011;5692;48.956;9.200;2023-09-19T12:38:56;227.30;;;216.40;;
11269;SDS011;5692;48.956;9.200;2023-09-19T12:41:24;226.10;;;215.30;;
11269;SDS011;5692;48.956;9.200;2023-09-19T12:44:05;230.70;;;219.70;;
11269;SDS011;5692;48.956;9.200;2023-09-19T12:46:34;242.57;;;230.97;;
11269;SDS011;5692;48.956;9.200;2023-09-19T12:49:17;234.70;;;223.47;;
11269;SDS011;5692;48.956;9.200;2023-09-19T12:51:51;239.60;;;228.13;;
11269;SDS011;5692;48.956;9.200;2023-09-19T12:54:39;235.30;;;224.03;;
11269;SDS011;5692;48.956;9.200;2023-09-19T12:57:06;193.63;;;184.37;;
11269;SDS011;5692;48.956;9.200;2023-09-19T12:59:38;228.93;;;217.97;;
11269;SDS011;5692;48.956;9.200;2023-09-19T13:02:17;243.07;;;231.47;;
11269;SDS011;5692;48.956;9.200;2023-09-19T13:04:55;224.30;;;213.57;;
11269;SDS011;5692;48.956;9.200;2023-09-19T13:07:44;222.87;;;212.20;;
11269;SDS011;5692;48.956;9.200;2023-09-19T13:10:16;235.37;;;224.10;;
11269;SDS011;5692;48.956;9.200;2023-09-19T13:12:51;245.80;;;234.03;;
11269;SDS011;5692;48.956;9.200;2023-09-19T13:15:24;247.23;;;235.43;;
11269;SDS011;5692;48.956;9.200;2023-09-19T13:17:57;217.43;;;207.03;;
11269;SDS011;5692;48.956;9.200;2023-09-19T13:20:27;226.20;;;215.37;;
11269;SDS011;5692;48.956;9.200;2023-09-19T13:22:57;226.03;;;215.20;;
11269;SDS011;5692;48.956;9.200;2023-09-19T13:25:30;224.60;;;213.87;;
11269;SDS011;5692;48.956;9.200;2023-09-19T13:27:59;221.37;;;210.77;;
11269;SDS011;5692;48.956;9.200;2023-09-19T13:30:30;239.17;;;227.77;;
11269;SDS011;5692;48.956;9.200;2023-09-19T13:35:36;218.50;;;208.03;;
11269;SDS011;5692;48.956;9.200;2023-09-19T13:38:05;218.30;;;207.87;;
11269;SDS011;5692;48.956;9.200;2023-09-19T13:40:44;239.03;;;227.63;;
11269;SDS011;5692;48.956;9.200;2023-09-19T13:43:13;229.37;;;218.37;;
11269;SDS011;5692;48.956;9.200;2023-09-19T13:45:44;250.60;;;238.60;;
11269;SDS011;5692;48.956;9.200;2023-09-19T13:48:10;237.87;;;226.50;;
11269;SDS011;5692;48.956;9.200;2023-09-19T13:50:40;246.70;;;234.90;;
11269;SDS011;5692;48.956;9.200;2023-09-19T13:53:10;229.80;;;218.80;;
11269;SDS011;5692;48.956;9.200;2023-09-19T13:55:38;252.63;;;240.53;;
11269;SDS011;5692;48.956;9.200;2023-09-19T13:58:08;238.43;;;227.03;;
11269;SDS011;5692;48.956;9.200;2023-09-19T14:00:40;256.87;;;244.57;;
11269;SDS011;5692;48.956;9.200;2023-09-19T14:03:10;248.33;;;236.47;;
11269;SDS011;5692;48.956;9.200;2023-09-19T14:05:41;227.27;;;216.37;;
11269;SDS011;5692;48.956;9.200;2023-09-19T14:08:20;237.90;;;226.50;;
11269;SDS011;5692;48.956;9.200;2023-09-19T14:10:51;227.17;;;216.30;;
11269;SDS011;5692;48.956;9.200;2023-09-19T14:13:24;223.63;;;212.93;;
11269;SDS011;5692;48.956;9.200;2023-09-19T14:16:02;252.57;;;240.47;;
11269;SDS011;5692;48.956;9.200;2023-09-19T14:21:43;241.60;;;230.03;;
11269;SDS011;5692;48.956;9.200;2023-09-19T14:24:18;236.43;;;225.13;;
11269;SDS011;5692;48.956;9.200;2023-09-19T14:26:47;221.37;;;210.77;;
11269;SDS011;5692;48.956;9.200;2023-09-19T14:29:17;232.03;;;220.93;;
11269;SDS011;5692;48.956;9.200;2023-09-19T14:31:50;251.60;;;239.60;;
11269;SDS011;5692;48.956;9.200;2023-09-19T14:34:22;233.47;;;222.30;;
11269;SDS011;5692;48.956;9.200;2023-09-19T14:37:08;233.80;;;222.60;;
11269;SDS011;5692;48.956;9.200;2023-09-19T14:39:38;245.87;;;234.10;;
11269;SDS011;5692;48.956;9.200;2023-09-19T14:42:10;250.97;;;238.97;;
11269;SDS011;5692;48.956;9.200;2023-09-19T14:44:49;237.97;;;226.57;;
11269;SDS011;5692;48.956;9.200;2023-09-19T14:47:22;231.87;;;220.80;;
11269;SDS011;5692;48.956;9.200;2023-09-19T14:49:59;227.80;;;216.90;;
11269;SDS011;5692;48.956;9.200;2023-09-19T14:52:34;243.50;;;231.87;;
11269;SDS011;5692;48.956;9.200;2023-09-19T14:55:02;223.60;;;212.90;;
11269;SDS011;5692;48.956;9.200;2023-09-19T14:57:40;216.03;;;205.70;;
11269;SDS011;5692;48.956;9.200;2023-09-19T15:00:11;218.40;;;207.97;;
11269;SDS011;5692;48.956;9.200;2023-09-19T15:02:43;205.60;;;195.77;;
11269;SDS011;5692;48.956;9.200;2023-09-19T15:05:10;235.37;;;224.10;;
11269;SDS011;5692;48.956;9.200;2023-09-19T15:07:37;245.80;;;234.03;;